LiveATC.Net - Listen to live air traffic control over the Internet! Contact LiveATC.net for advertising information


ICAO: KDAN  IATA: DAN   Airport: Danville Regional Airport
City: Danville   State/Province: Virginia
Country: United States   Continent: North America
KDAN METAR Weather: KDAN 160453Z AUTO 33007KT 10SM CLR 03/M04 A3009 RMK AO2 SLP183 T00281044 402060028
KDAN Flight Activity (FlightAware)
KDAN Airport Info   (AirNav) (iFlightPlanner)
KDAN CTAF/ZDC
Feed Status: DOWN
Last heard on: 2014-04-10 07:18:04 (5 days 22 hours 2 minutes ago)
KDAN CTAF/ZDC Audio Archives
FacilityFrequency
Danville CTAF123.050
Washington Center (South Boston Sector, Low)124.050


NOTICE

Unauthorized use prohibited. See LiveATC.net Terms of Service


Find LiveATC Audio Streams


Airport/ARTCC Code

Frequency
(e.g., 124.400, 128.75)
Site-wide search

Browse LiveATC Feeds
LiveATC Coverage Map
Top 50 LiveATC Feeds
Bad Weather Areas

LiveATC FAQ
Offer a LiveATC Feed
Contact LiveATC.net
Press Inquiries

LiveATC on iPhone
LiveATC on Android

LiveATC Mobile
(Mobile browser)

ATC Audio Archives
Interesting Recordings

LiveATC Forums


Home Page
About LiveATC.net
Make a Donation
LiveATC Bookstore

Terms of Use
Privacy Policy

ATC/Radar Sites
U.S. ARTCC Freqs
Canadian Air Freqs

AIRMETs/SIGMETs

FAA Airport Status
Nat'l Airspace Status
Arrival Demand Charts


Server Software By:
Icecast.org
Liquidsoap

Please make a donation to help us keep growing!